Time;durP1;ratioP1;P1;durP2;ratioP2;P2;SDS_P1;SDS_P2;PMS_P1;PMS_P2;Temp;Humidity;BMP_temperature;BMP_pressure;BME280_temperature;BME280_humidity;BME280_pressure;Samples;Min_cycle;Max_cycle;Signal;HPM_P1;HPM_P2
2021/09/08 00:02:22;;;;;;;19.37;15.63;;;16.50;99.90;;;;;;5032630;28;20370;-64
2021/09/08 00:04:47;;;;;;;18.93;15.83;;;16.50;99.90;;;;;;5031011;28;20186;-65
2021/09/08 00:07:13;;;;;;;20.87;15.23;;;16.50;99.90;;;;;;5032499;28;20274;-65
2021/09/08 00:09:38;;;;;;;18.53;15.23;;;16.50;99.90;;;;;;5018979;28;20187;-65
2021/09/08 00:12:05;;;;;;;20.30;16.27;;;16.50;99.90;;;;;;5012683;28;20668;-65
2021/09/08 00:14:31;;;;;;;26.70;16.37;;;16.40;99.90;;;;;;5023600;28;20211;-65
2021/09/08 00:16:56;;;;;;;18.30;14.57;;;16.30;99.90;;;;;;5031390;28;20669;-64
2021/09/08 00:19:22;;;;;;;20.03;15.90;;;16.30;99.90;;;;;;5022266;28;20180;-64
2021/09/08 00:21:48;;;;;;;17.73;14.33;;;16.40;99.90;;;;;;5012619;28;20204;-65
2021/09/08 00:24:13;;;;;;;20.40;16.07;;;16.30;99.90;;;;;;5020480;28;20179;-65
2021/09/08 00:26:39;;;;;;;17.37;15.10;;;16.30;99.90;;;;;;5031900;28;20199;-65
2021/09/08 00:29:04;;;;;;;17.57;14.50;;;16.30;99.90;;;;;;5025954;28;20180;-65
2021/09/08 00:31:30;;;;;;;16.57;14.93;;;16.30;99.90;;;;;;5024614;28;20183;-65
2021/09/08 00:33:55;;;;;;;18.10;14.37;;;16.40;99.90;;;;;;5027360;28;20207;-65
2021/09/08 00:36:21;;;;;;;18.50;16.03;;;16.40;99.90;;;;;;5012395;28;20211;-66
2021/09/08 00:38:47;;;;;;;17.40;15.13;;;16.40;99.90;;;;;;5014592;28;20692;-65
2021/09/08 00:41:13;;;;;;;16.10;13.90;;;16.40;99.90;;;;;;5031762;28;20176;-65
2021/09/08 00:43:38;;;;;;;15.73;14.00;;;16.40;99.90;;;;;;5030586;28;20187;-65
2021/09/08 00:46:04;;;;;;;18.93;14.77;;;16.40;99.90;;;;;;5010629;28;20207;-65
2021/09/08 00:48:30;;;;;;;18.80;13.93;;;16.40;99.90;;;;;;5023497;28;20286;-65
2021/09/08 00:50:56;;;;;;;27.03;16.23;;;16.40;99.90;;;;;;5031685;28;20183;-65
2021/09/08 00:53:22;;;;;;;16.37;13.83;;;16.40;99.90;;;;;;5021285;28;20200;-65
2021/09/08 00:55:48;;;;;;;19.30;15.07;;;16.30;99.90;;;;;;5011949;28;20246;-65
2021/09/08 00:58:14;;;;;;;18.77;14.53;;;16.20;99.90;;;;;;5020367;28;20594;-65
2021/09/08 01:00:41;;;;;;;16.20;14.50;;;16.20;99.90;;;;;;5031197;28;20175;-65
2021/09/08 01:03:06;;;;;;;19.83;15.50;;;16.10;99.90;;;;;;5024410;28;20279;-64
2021/09/08 01:05:32;;;;;;;16.93;15.13;;;16.10;99.90;;;;;;5011773;28;20274;-65
2021/09/08 01:07:59;;;;;;;21.77;15.73;;;16.00;99.90;;;;;;5017112;28;20584;-64
2021/09/08 01:10:25;;;;;;;19.90;15.30;;;16.00;99.90;;;;;;5031246;28;20163;-65
2021/09/08 01:12:51;;;;;;;17.37;15.47;;;15.90;99.90;;;;;;5027423;28;20529;-64
2021/09/08 01:15:17;;;;;;;18.83;15.53;;;16.00;99.90;;;;;;5011879;28;20223;-65
2021/09/08 01:17:43;;;;;;;20.60;15.43;;;16.00;99.90;;;;;;5013538;28;20176;-65
2021/09/08 01:20:10;;;;;;;19.87;15.30;;;16.00;99.90;;;;;;5031148;28;20634;-65
2021/09/08 01:22:53;;;;;;;16.77;13.93;;;16.00;99.90;;;;;;5030370;28;20175;-65
2021/09/08 01:25:25;;;;;;;16.83;15.03;;;15.90;99.90;;;;;;5011610;28;20295;-65
2021/09/08 01:27:52;;;;;;;17.43;14.83;;;15.90;99.90;;;;;;5030625;28;20458;-64
2021/09/08 01:30:21;;;;;;;15.93;14.13;;;15.80;99.90;;;;;;5031070;28;20225;-64
2021/09/08 01:32:47;;;;;;;20.43;15.30;;;15.80;99.90;;;;;;5012880;28;20184;-66
2021/09/08 01:35:15;;;;;;;19.03;15.50;;;15.80;99.90;;;;;;5011459;28;20215;-64
2021/09/08 01:37:40;;;;;;;18.40;15.63;;;15.70;99.90;;;;;;5027917;28;20187;-64
2021/09/08 01:40:07;;;;;;;17.43;13.97;;;15.70;99.90;;;;;;5031085;28;20763;-64
2021/09/08 01:42:32;;;;;;;16.77;15.00;;;15.60;99.90;;;;;;5015972;28;20211;-64
2021/09/08 01:44:58;;;;;;;16.77;14.30;;;15.50;99.90;;;;;;5011477;28;20653;-64
2021/09/08 01:47:24;;;;;;;20.33;15.73;;;15.50;99.90;;;;;;5024481;28;20261;-64
2021/09/08 01:49:49;;;;;;;18.97;16.97;;;15.50;99.90;;;;;;5030952;28;20254;-64
2021/09/08 01:52:15;;;;;;;18.50;15.63;;;15.60;99.90;;;;;;5028303;28;20187;-64
2021/09/08 01:54:41;;;;;;;20.43;15.90;;;15.60;99.90;;;;;;5023650;28;20215;-64
2021/09/08 01:57:07;;;;;;;17.17;14.27;;;15.60;99.90;;;;;;5013261;28;20199;-65
2021/09/08 01:59:32;;;;;;;19.57;14.60;;;15.60;99.90;;;;;;5019969;28;20546;-65
2021/09/08 02:01:58;;;;;;;17.93;14.43;;;15.50;99.90;;;;;;5034926;28;20212;-65
2021/09/08 02:04:23;;;;;;;20.00;16.43;;;15.60;99.90;;;;;;5031013;28;20215;-65
2021/09/08 02:06:51;;;;;;;20.27;17.40;;;15.50;99.90;;;;;;5014803;28;20200;-65
2021/09/08 02:09:18;;;;;;;19.17;16.20;;;15.40;99.90;;;;;;5032564;28;20187;-65
2021/09/08 02:11:44;;;;;;;19.80;15.73;;;15.40;99.90;;;;;;5034588;28;20175;-64
2021/09/08 02:14:11;;;;;;;24.00;16.57;;;15.30;99.90;;;;;;5017999;28;20212;-65
2021/09/08 02:16:36;;;;;;;18.37;16.10;;;15.30;99.90;;;;;;5013836;28;20569;-65
2021/09/08 02:19:03;;;;;;;18.80;15.10;;;15.20;99.90;;;;;;5029367;28;20278;-65
2021/09/08 02:21:28;;;;;;;18.90;15.40;;;15.20;99.90;;;;;;5034511;28;20176;-68
2021/09/08 02:23:54;;;;;;;17.87;15.03;;;15.20;99.90;;;;;;5020731;28;20860;-69
2021/09/08 02:26:19;;;;;;;18.77;16.73;;;15.20;99.90;;;;;;5015376;28;20323;-68
2021/09/08 02:28:45;;;;;;;19.53;15.87;;;15.10;99.90;;;;;;5027827;28;20214;-68
2021/09/08 02:31:11;;;;;;;18.77;15.77;;;15.10;99.90;;;;;;5035080;28;20542;-69
2021/09/08 02:33:37;;;;;;;17.63;15.37;;;15.00;99.90;;;;;;5024480;28;20650;-68
2021/09/08 02:36:04;;;;;;;17.90;15.53;;;14.90;99.90;;;;;;5015514;28;20193;-70
2021/09/08 02:38:30;;;;;;;20.30;16.10;;;14.90;99.90;;;;;;5024320;28;20266;-69
2021/09/08 02:41:01;;;;;;;19.93;15.60;;;14.90;99.90;;;;;;5034670;28;20175;-70
2021/09/08 02:43:29;;;;;;;16.97;15.17;;;14.90;99.90;;;;;;5027009;28;20657;-69
2021/09/08 02:45:55;;;;;;;19.00;16.27;;;14.90;99.90;;;;;;5015390;28;20196;-69
2021/09/08 02:48:20;;;;;;;17.53;15.33;;;14.80;99.90;;;;;;5032368;28;20206;-69
2021/09/08 02:50:46;;;;;;;20.43;16.17;;;14.70;99.90;;;;;;5031690;28;20614;-69
2021/09/08 02:53:12;;;;;;;22.60;16.73;;;14.80;99.90;;;;;;5014909;28;20180;-70
2021/09/08 02:55:37;;;;;;;20.07;16.43;;;14.70;99.90;;;;;;5015295;28;20200;-68
2021/09/08 02:58:03;;;;;;;22.10;17.57;;;14.70;99.90;;;;;;5034886;28;20203;-68
2021/09/08 03:00:28;;;;;;;24.07;18.03;;;14.70;99.90;;;;;;5034645;28;20168;-69
2021/09/08 03:02:54;;;;;;;20.23;15.77;;;14.70;99.90;;;;;;5014249;28;20178;-68
2021/09/08 03:05:20;;;;;;;20.40;15.43;;;14.70;99.90;;;;;;5014982;28;20199;-70
2021/09/08 03:07:45;;;;;;;22.83;17.47;;;14.70;99.90;;;;;;5031473;28;20187;-69
2021/09/08 03:10:11;;;;;;;19.43;16.53;;;14.70;99.90;;;;;;5034308;28;20171;-69
2021/09/08 03:12:37;;;;;;;25.37;17.40;;;14.70;99.90;;;;;;5019103;28;20558;-68
2021/09/08 03:15:05;;;;;;;19.53;16.47;;;14.70;99.90;;;;;;5013975;28;20550;-68
2021/09/08 03:17:30;;;;;;;19.13;16.33;;;14.60;99.90;;;;;;5027804;28;20179;-68
2021/09/08 03:19:56;;;;;;;18.97;15.27;;;14.70;99.90;;;;;;5024389;28;20681;-70
2021/09/08 03:22:21;;;;;;;18.23;15.97;;;14.60;99.90;;;;;;5013717;28;20168;-69
2021/09/08 03:24:47;;;;;;;18.63;16.50;;;14.60;99.90;;;;;;5015462;28;20591;-68
2021/09/08 03:27:13;;;;;;;17.37;15.57;;;14.60;99.90;;;;;;5014556;28;20207;-68
2021/09/08 03:29:38;;;;;;;19.50;16.87;;;14.50;99.90;;;;;;5019581;28;20665;-68
2021/09/08 03:32:04;;;;;;;18.33;15.70;;;14.40;99.90;;;;;;5034367;28;20169;-67
2021/09/08 03:34:30;;;;;;;20.80;16.17;;;14.50;99.90;;;;;;5032504;28;20210;-69
2021/09/08 03:36:55;;;;;;;20.57;16.60;;;14.50;99.90;;;;;;5034158;28;20189;-71
2021/09/08 03:39:21;;;;;;;18.93;16.20;;;14.40;99.90;;;;;;5030922;28;20175;-68
2021/09/08 03:41:46;;;;;;;22.33;15.87;;;14.50;99.90;;;;;;5033856;28;20186;-68
2021/09/08 03:44:12;;;;;;;20.03;16.13;;;14.40;99.90;;;;;;5033856;28;20175;-68
2021/09/08 03:46:38;;;;;;;18.13;16.23;;;14.40;99.90;;;;;;5012651;28;20669;-69
2021/09/08 03:49:04;;;;;;;21.70;17.23;;;14.40;99.90;;;;;;5030016;28;20227;-66
2021/09/08 03:51:30;;;;;;;17.67;15.83;;;14.40;99.90;;;;;;5017595;28;20196;-64
2021/09/08 03:53:58;;;;;;;19.60;16.77;;;14.30;99.90;;;;;;5013096;28;20652;-64
2021/09/08 03:56:25;;;;;;;23.87;18.00;;;14.30;99.90;;;;;;5025431;28;20244;-64
2021/09/08 03:58:54;;;;;;;24.70;17.07;;;14.30;99.90;;;;;;5032626;28;20167;-64
2021/09/08 04:01:20;;;;;;;20.87;16.40;;;14.30;99.90;;;;;;5020599;28;20181;-65
2021/09/08 04:03:49;;;;;;;23.10;16.80;;;14.30;99.90;;;;;;5011522;28;20184;-65
2021/09/08 04:06:15;;;;;;;25.30;18.00;;;14.30;99.90;;;;;;5022682;28;20654;-65
2021/09/08 04:08:41;;;;;;;22.20;17.03;;;14.30;99.90;;;;;;5032426;28;20695;-65
2021/09/08 04:11:07;;;;;;;19.27;17.17;;;14.20;99.90;;;;;;5023660;28;20180;-64
2021/09/08 04:13:33;;;;;;;22.57;16.87;;;14.20;99.90;;;;;;5012535;28;20191;-64
2021/09/08 04:15:58;;;;;;;19.47;15.53;;;14.20;99.90;;;;;;5012397;28;20200;-66
2021/09/08 04:18:24;;;;;;;21.80;16.90;;;14.10;99.90;;;;;;5012958;28;20672;-64
2021/09/08 04:20:50;;;;;;;22.87;16.83;;;14.20;99.90;;;;;;5016091;28;20186;-64
2021/09/08 04:23:15;;;;;;;20.13;16.53;;;14.20;99.90;;;;;;5032435;28;20171;-66
2021/09/08 04:25:41;;;;;;;23.03;16.37;;;14.20;99.90;;;;;;5029079;28;20191;-64
2021/09/08 04:28:07;;;;;;;20.07;15.43;;;14.10;99.90;;;;;;5012494;28;20536;-64
2021/09/08 04:30:33;;;;;;;18.00;16.03;;;14.20;99.90;;;;;;5011475;28;20181;-64
2021/09/08 04:32:58;;;;;;;20.63;16.23;;;14.20;99.90;;;;;;5030762;28;20179;-64
2021/09/08 04:35:24;;;;;;;22.10;15.90;;;14.10;99.90;;;;;;5031996;28;20196;-64
2021/09/08 04:37:49;;;;;;;22.93;17.23;;;14.20;99.90;;;;;;5011518;28;20241;-64
2021/09/08 04:40:15;;;;;;;22.73;16.83;;;14.10;99.90;;;;;;5012028;28;20255;-64
2021/09/08 04:42:41;;;;;;;20.90;16.57;;;14.10;99.90;;;;;;5029002;28;20228;-64
2021/09/08 04:45:08;;;;;;;21.70;18.23;;;14.00;99.90;;;;;;5018439;28;20320;-64
2021/09/08 04:47:33;;;;;;;21.20;17.17;;;14.00;99.90;;;;;;5022512;28;20245;-65
2021/09/08 04:49:59;;;;;;;20.07;16.67;;;14.00;99.90;;;;;;5031755;28;20261;-65
2021/09/08 04:52:25;;;;;;;29.93;16.23;;;13.90;99.90;;;;;;5022091;28;20188;-65
2021/09/08 04:54:50;;;;;;;23.70;18.10;;;13.90;99.90;;;;;;5011946;28;20231;-65
2021/09/08 04:57:16;;;;;;;21.47;18.23;;;13.90;99.90;;;;;;5018516;28;20199;-65
2021/09/08 04:59:41;;;;;;;22.50;18.43;;;13.90;99.90;;;;;;5031457;28;20175;-65
2021/09/08 05:02:07;;;;;;;20.27;17.93;;;13.90;99.90;;;;;;5026992;28;20282;-65
2021/09/08 05:04:33;;;;;;;28.57;20.33;;;13.90;99.90;;;;;;5011911;28;20180;-65
2021/09/08 05:06:58;;;;;;;26.17;19.80;;;13.90;99.90;;;;;;5014356;28;20203;-65
2021/09/08 05:09:24;;;;;;;32.60;20.37;;;13.90;99.90;;;;;;5031413;28;20254;-65
2021/09/08 05:11:49;;;;;;;28.63;21.30;;;13.90;99.90;;;;;;5029316;28;20184;-65
2021/09/08 05:14:17;;;;;;;33.67;21.40;;;13.90;99.90;;;;;;5011822;28;20196;-64
2021/09/08 05:16:43;;;;;;;30.33;20.23;;;13.90;99.90;;;;;;5011058;28;20206;-65
2021/09/08 05:19:09;;;;;;;30.30;20.37;;;13.90;99.90;;;;;;5029945;28;20175;-65
2021/09/08 05:21:34;;;;;;;29.20;21.47;;;13.90;99.90;;;;;;5031408;28;20230;-64
2021/09/08 05:24:00;;;;;;;28.27;21.53;;;13.90;99.90;;;;;;5014154;28;20184;-65
2021/09/08 05:26:25;;;;;;;30.03;21.13;;;13.90;99.90;;;;;;5011832;28;20204;-63
2021/09/08 05:28:51;;;;;;;33.30;21.03;;;14.00;99.90;;;;;;5026824;28;20183;-65
2021/09/08 05:31:16;;;;;;;30.37;20.60;;;14.00;99.90;;;;;;5031676;28;20661;-64
2021/09/08 05:33:42;;;;;;;30.23;20.83;;;14.10;99.90;;;;;;5021666;28;20219;-64
2021/09/08 05:36:08;;;;;;;29.23;20.33;;;14.20;99.90;;;;;;5015662;28;20203;-63
2021/09/08 05:38:34;;;;;;;31.93;21.73;;;14.30;99.90;;;;;;5026701;28;20191;-64
2021/09/08 05:41:00;;;;;;;27.80;21.43;;;14.30;99.90;;;;;;5022203;28;20622;-63
2021/09/08 05:43:26;;;;;;;25.07;20.63;;;14.30;99.90;;;;;;5015427;28;20237;-63
2021/09/08 05:45:51;;;;;;;29.37;21.43;;;14.40;99.90;;;;;;5021469;28;20712;-63
2021/09/08 05:48:17;;;;;;;23.73;19.20;;;14.50;99.90;;;;;;5035187;28;20351;-64
2021/09/08 05:50:42;;;;;;;26.30;19.90;;;14.50;99.90;;;;;;5034115;28;20706;-63
2021/09/08 05:53:08;;;;;;;22.00;18.40;;;14.50;99.90;;;;;;5034829;28;20463;-64
2021/09/08 05:55:34;;;;;;;24.77;18.30;;;14.60;99.90;;;;;;5030465;28;20303;-64
2021/09/08 05:57:59;;;;;;;25.30;18.57;;;14.60;99.90;;;;;;5018626;28;20176;-64
2021/09/08 06:00:25;;;;;;;25.87;19.53;;;14.80;99.90;;;;;;5033964;28;20207;-65
2021/09/08 06:02:50;;;;;;;24.80;19.67;;;14.80;99.90;;;;;;5014999;28;20249;-65
2021/09/08 06:05:16;;;;;;;19.23;16.43;;;14.90;99.90;;;;;;5014877;28;20219;-65
2021/09/08 06:07:42;;;;;;;20.60;17.43;;;15.00;99.90;;;;;;5015484;28;20188;-64
2021/09/08 06:10:08;;;;;;;22.27;17.03;;;15.10;99.90;;;;;;5014648;28;20692;-64
2021/09/08 06:12:33;;;;;;;20.93;17.83;;;15.20;99.90;;;;;;5030923;28;20262;-65
2021/09/08 06:14:59;;;;;;;21.87;18.47;;;15.30;99.90;;;;;;5034252;28;20298;-65
2021/09/08 06:17:25;;;;;;;18.37;15.93;;;15.40;99.90;;;;;;5019787;28;20668;-65
2021/09/08 06:19:50;;;;;;;24.73;16.57;;;15.60;99.90;;;;;;5014884;28;20226;-65
2021/09/08 06:22:16;;;;;;;19.50;14.97;;;15.90;99.90;;;;;;5027431;28;20187;-65
2021/09/08 06:24:42;;;;;;;17.67;14.37;;;16.40;99.90;;;;;;5034198;28;20187;-64
2021/09/08 06:27:07;;;;;;;20.07;13.00;;;17.00;99.90;;;;;;5023105;28;20204;-65
2021/09/08 06:29:33;;;;;;;20.80;14.10;;;17.50;99.90;;;;;;5014144;28;20294;-65
2021/09/08 06:31:59;;;;;;;15.63;12.50;;;17.90;99.90;;;;;;5023148;28;20195;-65
2021/09/08 06:34:24;;;;;;;16.00;12.67;;;18.30;99.90;;;;;;5028690;28;20211;-65
2021/09/08 06:36:53;;;;;;;21.37;12.67;;;18.70;99.90;;;;;;5014225;28;20204;-64
2021/09/08 06:39:19;;;;;;;21.40;13.03;;;19.20;99.90;;;;;;5017723;28;20183;-65
2021/09/08 06:41:44;;;;;;;15.27;12.73;;;19.60;99.90;;;;;;5033724;28;20190;-64
2021/09/08 06:44:10;;;;;;;15.05;12.90;;;20.00;99.90;;;;;;5031673;28;20254;-64
2021/09/08 06:46:36;;;;;;;21.05;12.38;;;20.40;99.90;;;;;;5014047;28;20196;-65
2021/09/08 06:49:02;;;;;;;15.07;11.95;;;20.70;99.90;;;;;;5013837;28;20216;-64
2021/09/08 06:51:28;;;;;;;14.43;12.60;;;21.10;99.90;;;;;;5032829;28;20370;-64
2021/09/08 06:53:53;;;;;;;15.15;12.63;;;21.20;99.90;;;;;;5033924;28;20669;-64
2021/09/08 06:56:19;;;;;;;14.95;11.48;;;21.40;99.90;;;;;;5029313;28;20195;-65
2021/09/08 06:58:44;;;;;;;14.23;11.68;;;21.60;99.90;;;;;;5033344;28;20186;-65
2021/09/08 07:01:10;;;;;;;14.80;11.73;;;21.80;99.90;;;;;;5020212;28;20722;-65
2021/09/08 07:03:35;;;;;;;14.95;11.95;;;22.10;99.90;;;;;;5013804;28;20177;-64
2021/09/08 07:06:01;;;;;;;16.80;10.82;;;22.20;99.90;;;;;;5028274;28;20653;-64
2021/09/08 07:08:27;;;;;;;13.50;10.98;;;22.50;99.90;;;;;;5033463;28;20187;-64
2021/09/08 07:10:52;;;;;;;13.35;11.23;;;22.70;99.90;;;;;;5020042;28;20699;-64
2021/09/08 07:13:18;;;;;;;12.95;10.55;;;22.70;99.90;;;;;;5013494;28;20180;-64
2021/09/08 07:15:43;;;;;;;12.43;10.85;;;22.80;99.90;;;;;;5024443;28;20199;-64
2021/09/08 07:18:09;;;;;;;12.65;11.02;;;22.70;99.90;;;;;;5033525;28;20187;-64
2021/09/08 07:20:35;;;;;;;16.10;11.30;;;22.80;99.90;;;;;;5023297;28;20626;-64
2021/09/08 07:23:00;;;;;;;14.65;11.05;;;23.00;99.90;;;;;;5018622;28;20180;-65
2021/09/08 07:25:26;;;;;;;14.77;11.48;;;23.10;99.90;;;;;;5033223;28;20192;-65
2021/09/08 07:27:53;;;;;;;14.05;10.45;;;23.20;99.90;;;;;;5028612;28;20211;-64
2021/09/08 07:30:18;;;;;;;12.73;10.70;;;23.30;99.90;;;;;;5032598;28;20175;-65
2021/09/08 07:32:44;;;;;;;15.27;10.13;;;23.50;99.90;;;;;;5032939;28;20167;-64
2021/09/08 07:35:10;;;;;;;12.45;11.07;;;23.60;99.90;;;;;;5032796;28;20283;-64
2021/09/08 07:37:37;;;;;;;12.20;10.95;;;23.60;99.90;;;;;;5032731;28;20595;-65
2021/09/08 07:40:05;;;;;;;12.80;10.73;;;23.90;99.90;;;;;;5032765;28;20213;-65
2021/09/08 07:42:30;;;;;;;13.90;10.60;;;24.10;99.90;;;;;;5031997;28;20548;-65
2021/09/08 07:44:56;;;;;;;12.85;10.55;;;24.00;99.90;;;;;;5032771;28;20171;-65
2021/09/08 07:47:22;;;;;;;12.35;11.00;;;24.40;99.90;;;;;;5032349;28;20222;-65
2021/09/08 07:49:48;;;;;;;13.80;10.52;;;24.40;99.90;;;;;;5032330;28;20236;-64
2021/09/08 07:52:13;;;;;;;12.10;10.57;;;24.60;99.90;;;;;;5032585;28;20203;-64
2021/09/08 07:54:39;;;;;;;13.80;10.30;;;24.90;99.90;;;;;;5031564;28;20723;-64
2021/09/08 07:57:04;;;;;;;12.25;10.68;;;25.00;99.90;;;;;;5032291;28;20282;-65
2021/09/08 07:59:30;;;;;;;13.30;11.18;;;25.00;99.90;;;;;;5032054;28;20176;-65
2021/09/08 08:01:56;;;;;;;12.13;9.85;;;24.90;99.90;;;;;;5032370;28;20258;-65
2021/09/08 08:04:21;;;;;;;13.65;11.13;;;25.00;99.90;;;;;;5032122;28;20171;-65
2021/09/08 08:06:47;;;;;;;13.30;11.10;;;25.10;99.90;;;;;;5032264;28;20337;-65
2021/09/08 08:09:12;;;;;;;13.13;10.63;;;24.90;99.90;;;;;;5032155;28;20634;-64
2021/09/08 08:11:38;;;;;;;11.10;9.98;;;24.80;99.90;;;;;;5032034;28;20286;-65
2021/09/08 08:14:04;;;;;;;11.30;10.20;;;24.90;99.90;;;;;;5032126;28;20203;-65
2021/09/08 08:16:31;;;;;;;12.05;10.27;;;25.10;99.90;;;;;;5031980;28;20274;-65
2021/09/08 08:18:57;;;;;;;12.65;11.23;;;25.40;99.90;;;;;;5032039;28;20336;-65
2021/09/08 08:21:23;;;;;;;12.18;10.65;;;25.40;99.90;;;;;;5031554;28;20259;-65
2021/09/08 08:23:48;;;;;;;13.85;10.80;;;25.50;99.90;;;;;;5031929;28;20637;-65
2021/09/08 08:26:17;;;;;;;14.52;10.38;;;25.80;99.90;;;;;;5031831;28;20198;-65
2021/09/08 08:28:43;;;;;;;15.10;11.13;;;26.10;99.90;;;;;;5031759;28;20187;-65
2021/09/08 08:31:09;;;;;;;13.43;10.15;;;26.30;99.90;;;;;;5031459;28;20517;-65
2021/09/08 08:33:35;;;;;;;12.50;10.70;;;26.00;99.90;;;;;;5031604;28;20195;-65
2021/09/08 08:36:00;;;;;;;10.95;9.85;;;26.20;99.90;;;;;;5031960;28;20691;-65
2021/09/08 08:38:26;;;;;;;11.68;9.85;;;26.40;99.90;;;;;;5031607;28;20175;-64
2021/09/08 08:40:52;;;;;;;12.68;9.38;;;26.50;99.90;;;;;;5030193;28;20207;-64
2021/09/08 08:43:20;;;;;;;13.35;10.32;;;26.80;99.90;;;;;;5030837;28;20552;-64
2021/09/08 08:45:46;;;;;;;11.90;10.02;;;27.10;99.90;;;;;;5031669;28;20195;-64
2021/09/08 08:48:12;;;;;;;12.57;10.05;;;26.90;99.90;;;;;;5031481;28;20179;-65
2021/09/08 08:50:37;;;;;;;11.43;10.32;;;27.10;99.90;;;;;;5030998;28;20230;-65
2021/09/08 08:53:03;;;;;;;13.20;11.35;;;27.00;99.90;;;;;;5031422;28;20171;-65
2021/09/08 08:55:29;;;;;;;11.73;10.55;;;27.20;99.90;;;;;;5031187;28;20210;-65
2021/09/08 08:57:55;;;;;;;11.60;10.40;;;27.10;99.90;;;;;;5031369;28;20172;-65
2021/09/08 09:00:22;;;;;;;11.13;10.02;;;26.80;99.90;;;;;;5031042;28;20167;-65
2021/09/08 09:02:52;;;;;;;15.57;11.32;;;27.10;99.90;;;;;;5031389;28;20259;-65
2021/09/08 09:05:38;;;;;;;12.73;10.02;;;27.30;99.90;;;;;;5031633;28;20222;-65
2021/09/08 09:08:09;;;;;;;12.27;10.15;;;27.70;99.90;;;;;;5031565;28;20179;-65
2021/09/08 09:10:36;;;;;;;11.30;10.18;;;28.10;99.90;;;;;;5030976;28;20194;-64
2021/09/08 09:13:03;;;;;;;11.20;10.10;;;28.40;99.90;;;;;;5031240;28;20171;-65
2021/09/08 09:15:29;;;;;;;11.98;10.80;;;28.70;99.90;;;;;;5030663;28;20206;-65
2021/09/08 09:17:55;;;;;;;10.93;9.77;;;28.40;99.90;;;;;;5031286;28;20182;-65
2021/09/08 09:20:33;;;;;;;12.70;10.38;;;28.50;99.90;;;;;;5030984;28;20168;-65
2021/09/08 09:23:03;;;;;;;11.35;9.98;;;28.90;99.90;;;;;;5031353;28;20199;-65
2021/09/08 09:25:37;;;;;;;12.70;11.25;;;29.20;99.90;;;;;;5030963;28;20203;-65
2021/09/08 09:28:05;;;;;;;11.10;9.95;;;29.50;99.90;;;;;;5031558;28;20179;-64
2021/09/08 09:30:34;;;;;;;13.40;10.18;;;30.00;99.90;;;;;;5029432;28;20210;-65
2021/09/08 09:33:01;;;;;;;10.52;9.50;;;30.20;99.90;;;;;;5031148;28;20681;-65
2021/09/08 09:35:30;;;;;;;12.88;9.90;;;30.40;99.90;;;;;;5019554;28;20208;-64
2021/09/08 09:37:58;;;;;;;11.23;9.55;;;30.20;99.90;;;;;;5029407;28;20195;-64
2021/09/08 09:40:29;;;;;;;11.35;9.73;;;29.70;99.90;;;;;;5030571;28;20365;-64
2021/09/08 09:42:55;;;;;;;11.35;10.15;;;29.80;99.90;;;;;;5030252;28;20163;-65
2021/09/08 09:45:21;;;;;;;10.23;9.10;;;30.10;99.90;;;;;;5030765;28;20282;-65
2021/09/08 09:47:49;;;;;;;12.25;10.10;;;29.70;99.90;;;;;;5030075;28;20656;-64
2021/09/08 09:50:17;;;;;;;10.18;9.23;;;29.60;99.90;;;;;;5030625;28;20277;-64
2021/09/08 09:52:54;;;;;;;17.08;10.82;;;29.50;99.90;;;;;;5023179;28;20271;-65
2021/09/08 09:55:23;;;;;;;14.35;10.73;;;29.60;99.90;;;;;;5010938;28;20560;-65
2021/09/08 09:57:49;;;;;;;10.80;9.70;;;29.20;99.90;;;;;;5018583;28;20714;-65
2021/09/08 10:00:17;;;;;;;12.77;10.98;;;29.00;99.90;;;;;;5030008;28;20175;-64
2021/09/08 10:02:44;;;;;;;10.43;9.13;;;28.80;99.90;;;;;;5024216;28;20674;-65
2021/09/08 10:05:11;;;;;;;12.18;10.82;;;29.00;99.90;;;;;;5010864;28;20176;-65
2021/09/08 10:07:38;;;;;;;11.52;9.88;;;29.30;99.90;;;;;;5015438;28;20246;-65
2021/09/08 10:10:10;;;;;;;11.13;10.02;;;29.70;99.90;;;;;;5030506;28;20171;-64
2021/09/08 10:12:40;;;;;;;10.93;9.98;;;30.30;99.90;;;;;;5026243;28;20572;-64
2021/09/08 10:15:07;;;;;;;13.25;9.93;;;30.50;99.90;;;;;;5010978;28;20571;-64
2021/09/08 10:17:41;;;;;;;11.48;10.38;;;31.00;99.90;;;;;;5015221;28;20183;-64
2021/09/08 10:20:08;;;;;;;10.55;9.55;;;31.10;99.90;;;;;;5033995;28;20181;-64
2021/09/08 10:22:39;;;;;;;11.05;9.88;;;30.70;99.90;;;;;;5030610;28;20176;-64
2021/09/08 10:25:13;;;;;;;10.88;9.88;;;30.00;99.90;;;;;;5025521;28;20202;-65
2021/09/08 10:27:40;;;;;;;10.77;9.68;;;29.90;99.90;;;;;;5014264;28;20262;-64
2021/09/08 10:30:07;;;;;;;12.40;9.80;;;29.50;99.90;;;;;;5016137;28;20239;-64
2021/09/08 10:32:34;;;;;;;10.98;9.90;;;29.60;99.90;;;;;;5033970;28;20512;-64
2021/09/08 10:35:13;;;;;;;10.30;9.25;;;29.90;99.90;;;;;;5032884;28;20680;-65
2021/09/08 10:37:43;;;;;;;10.40;9.40;;;30.10;99.90;;;;;;5014165;28;20190;-64
2021/09/08 10:40:09;;;;;;;10.25;9.25;;;30.50;99.90;;;;;;5015201;28;20168;-64
2021/09/08 10:42:45;;;;;;;14.18;9.35;;;30.80;99.90;;;;;;5014092;28;20184;-65
2021/09/08 10:45:19;;;;;;;9.93;9.10;;;31.20;99.90;;;;;;5015164;28;20601;-64
2021/09/08 10:47:45;;;;;;;11.73;9.73;;;31.30;99.90;;;;;;5047404;22;20628;-64
2021/09/08 10:50:13;;;;;;;10.13;9.05;;;31.30;99.90;;;;;;5073357;28;20226;-65
2021/09/08 10:52:39;;;;;;;10.75;9.75;;;31.30;99.90;;;;;;5073802;28;20194;-65
2021/09/08 10:55:05;;;;;;;10.98;9.88;;;31.50;99.90;;;;;;5072822;28;20263;-65
2021/09/08 10:57:49;;;;;;;11.65;9.60;;;31.60;99.90;;;;;;5073121;28;20171;-64
2021/09/08 11:00:34;;;;;;;9.95;8.95;;;31.80;99.90;;;;;;5073264;28;20174;-65
2021/09/08 11:02:59;;;;;;;10.07;9.15;;;31.60;99.90;;;;;;5053404;28;20541;-65
2021/09/08 11:05:26;;;;;;;12.23;9.88;;;31.70;99.90;;;;;;5054263;28;20183;-65
2021/09/08 11:07:52;;;;;;;10.18;9.07;;;31.80;99.90;;;;;;5073553;28;20208;-65
2021/09/08 11:10:25;;;;;;;10.00;9.10;;;31.80;99.90;;;;;;5072404;28;20265;-65
2021/09/08 11:12:53;;;;;;;9.98;9.07;;;31.80;99.90;;;;;;5053427;28;20174;-65
2021/09/08 11:15:33;;;;;;;11.38;9.05;;;31.90;99.90;;;;;;5052941;28;20301;-65
2021/09/08 11:17:59;;;;;;;10.75;9.73;;;31.90;99.90;;;;;;5073390;28;20194;-65
2021/09/08 11:20:25;;;;;;;11.50;10.30;;;31.40;99.90;;;;;;5055938;28;20178;-65
2021/09/08 11:23:01;;;;;;;10.95;9.77;;;30.90;99.90;;;;;;5053203;28;20373;-65
2021/09/08 11:25:33;;;;;;;9.90;8.98;;;30.70;99.90;;;;;;5069089;28;20599;-65
2021/09/08 11:28:00;;;;;;;10.93;9.85;;;30.90;99.90;;;;;;5068747;28;20470;-65
2021/09/08 11:30:32;;;;;;;10.77;9.68;;;30.90;99.90;;;;;;5070460;28;20178;-65
2021/09/08 11:33:12;;;;;;;10.85;9.85;;;30.90;99.90;;;;;;5063476;28;20175;-65
2021/09/08 11:35:46;;;;;;;11.02;10.02;;;30.90;99.90;;;;;;5053919;28;20237;-65
2021/09/08 11:38:26;;;;;;;11.32;10.13;;;31.20;99.90;;;;;;5052971;28;20194;-65
2021/09/08 11:40:59;;;;;;;10.65;9.38;;;31.50;99.90;;;;;;5056000;28;20666;-65
2021/09/08 11:43:36;;;;;;;12.35;8.93;;;31.60;99.90;;;;;;5072528;28;20231;-64
2021/09/08 11:46:22;;;;;;;9.95;8.95;;;31.80;99.90;;;;;;5067508;28;20266;-65
2021/09/08 11:49:07;;;;;;;9.65;8.55;;;31.90;99.90;;;;;;5052433;28;20811;-65
2021/09/08 11:51:35;;;;;;;10.63;9.13;;;31.90;99.90;;;;;;5060794;28;20235;-65
2021/09/08 11:54:04;;;;;;;21.88;10.95;;;31.80;99.90;;;;;;5072604;28;20209;-65
2021/09/08 11:56:31;;;;;;;10.90;9.55;;;31.20;99.90;;;;;;5062800;28;20225;-65
2021/09/08 11:59:01;;;;;;;9.85;8.95;;;31.10;99.90;;;;;;5052603;28;20191;-64
2021/09/08 12:01:45;;;;;;;10.27;9.38;;;30.90;99.90;;;;;;5059027;28;20289;-64
2021/09/08 12:04:11;;;;;;;11.85;9.68;;;30.70;99.90;;;;;;5072505;28;20563;-65
2021/09/08 12:06:56;;;;;;;10.10;9.02;;;30.70;99.90;;;;;;5064435;28;20209;-64
2021/09/08 12:09:31;;;;;;;10.57;9.57;;;30.80;99.90;;;;;;5051728;28;20182;-64
2021/09/08 12:11:59;;;;;;;10.13;9.23;;;30.60;99.90;;;;;;5062143;28;20183;-64
2021/09/08 12:14:39;;;;;;;9.88;8.93;;;30.60;99.90;;;;;;5072077;28;20281;-64
2021/09/08 12:17:18;;;;;;;13.45;8.93;;;30.80;99.90;;;;;;5061498;28;20185;-64
2021/09/08 12:19:54;;;;;;;9.52;8.70;;;30.90;99.90;;;;;;5051836;28;20170;-64
2021/09/08 12:22:23;;;;;;;11.20;9.07;;;30.90;99.90;;;;;;5064050;28;20177;-64
2021/09/08 12:24:53;;;;;;;9.80;8.60;;;31.00;99.90;;;;;;5072202;28;20627;-64
2021/09/08 12:27:28;;;;;;;10.30;9.30;;;31.20;99.90;;;;;;5060167;28;20200;-64
2021/09/08 12:30:23;;;;;;;11.35;8.68;;;31.10;99.90;;;;;;5051775;28;20291;-64
2021/09/08 12:33:07;;;;;;;10.38;9.27;;;31.00;99.90;;;;;;5063767;28;20193;-65